Time;durP1;ratioP1;P1;durP2;ratioP2;P2;SDS_P1;SDS_P2;PMS_P1;PMS_P2;Temp;Humidity;BMP_temperature;BMP_pressure;BME280_temperature;BME280_humidity;BME280_pressure;Samples;Min_cycle;Max_cycle;Signal;HPM_P1;HPM_P2
2022/07/12 00:00:50;;;;;;;;;;;;;;;28.42;31.52;100890.09;5062654;28;1012;-37
2022/07/12 00:03:15;;;;;;;;;;;;;;;28.43;31.70;100899.88;5068132;28;1080;-38
2022/07/12 00:05:40;;;;;;;;;;;;;;;28.43;31.70;100899.03;5067001;28;1004;-37
2022/07/12 00:08:06;;;;;;;;;;;;;;;28.41;31.53;100901.94;5059005;28;938;-37
2022/07/12 00:10:32;;;;;;;;;;;;;;;28.42;31.64;100900.94;5065302;28;917;-37
2022/07/12 00:12:57;;;;;;;;;;;;;;;28.43;31.65;100891.78;5060817;28;1004;-37
2022/07/12 00:15:22;;;;;;;;;;;;;;;28.46;31.41;100906.81;5058398;28;1000;-37
2022/07/12 00:17:48;;;;;;;;;;;;;;;28.48;31.37;100897.47;5062285;28;1969;-37
2022/07/12 00:20:13;;;;;;;;;;;;;;;28.43;31.64;100894.47;5057819;28;1186;-37
2022/07/12 00:22:38;;;;;;;;;;;;;;;28.43;31.46;100890.94;5064578;28;1039;-37
2022/07/12 00:25:04;;;;;;;;;;;;;;;28.51;31.23;100893.53;5067337;28;1171;-37
2022/07/12 00:27:29;;;;;;;;;;;;;;;28.47;31.04;100903.91;5063352;28;997;-37
2022/07/12 00:29:55;;;;;;;;;;;;;;;28.47;31.57;100898.50;5060029;28;1230;-37
2022/07/12 00:32:20;;;;;;;;;;;;;;;28.48;31.30;100900.16;5068638;28;962;-37
2022/07/12 00:34:45;;;;;;;;;;;;;;;28.45;31.51;100888.88;5062938;28;960;-37
2022/07/12 00:37:11;;;;;;;;;;;;;;;28.46;30.86;100891.41;5063868;28;1898;-37
2022/07/12 00:39:36;;;;;;;;;;;;;;;28.45;31.01;100889.72;5061467;28;1016;-37
2022/07/12 00:42:01;;;;;;;;;;;;;;;28.41;30.94;100893.00;5058714;28;1024;-37
2022/07/12 00:44:27;;;;;;;;;;;;;;;28.33;30.78;100891.22;5065505;28;984;-37
2022/07/12 00:46:52;;;;;;;;;;;;;;;28.41;30.84;100896.53;5061629;28;1124;-37
2022/07/12 00:49:17;;;;;;;;;;;;;;;28.47;30.51;100887.69;5067012;28;991;-37
2022/07/12 00:51:43;;;;;;;;;;;;;;;28.41;30.54;100893.00;5065129;28;1053;-37
2022/07/12 00:54:08;;;;;;;;;;;;;;;28.34;30.79;100896.44;5059202;28;1171;-38
2022/07/12 00:56:33;;;;;;;;;;;;;;;28.28;30.40;100886.34;5058848;28;969;-37
2022/07/12 00:58:58;;;;;;;;;;;;;;;28.32;30.20;100893.06;5063547;28;1902;-37
2022/07/12 01:01:24;;;;;;;;;;;;;;;28.33;30.27;100889.34;5066845;28;1171;-38
2022/07/12 01:03:49;;;;;;;;;;;;;;;28.19;30.42;100896.44;5055590;28;1048;-38
2022/07/12 01:06:14;;;;;;;;;;;;;;;28.28;30.29;100896.34;5068251;28;1195;-38
2022/07/12 01:08:40;;;;;;;;;;;;;;;28.29;30.21;100896.16;5063116;28;1017;-38
2022/07/12 01:11:05;;;;;;;;;;;;;;;28.27;30.41;100892.78;5061443;28;1016;-39
2022/07/12 01:13:30;;;;;;;;;;;;;;;28.30;30.23;100894.28;5062455;28;1065;-37
2022/07/12 01:15:56;;;;;;;;;;;;;;;28.27;30.47;100897.34;5062258;28;1017;-39
2022/07/12 01:18:21;;;;;;;;;;;;;;;28.35;30.66;100895.44;5057518;28;1961;-39
2022/07/12 01:20:46;;;;;;;;;;;;;;;28.32;30.57;100887.66;5064004;28;1033;-39
2022/07/12 01:23:12;;;;;;;;;;;;;;;28.40;30.44;100902.13;5060417;28;1009;-39
2022/07/12 01:25:37;;;;;;;;;;;;;;;28.37;30.68;100895.25;5064228;28;1004;-39
2022/07/12 01:28:02;;;;;;;;;;;;;;;28.28;30.70;100893.63;5067173;28;1127;-39
2022/07/12 01:30:28;;;;;;;;;;;;;;;28.24;30.88;100893.19;5060003;28;1123;-39
2022/07/12 01:32:53;;;;;;;;;;;;;;;28.36;30.51;100893.56;5064023;28;1110;-38
2022/07/12 01:35:18;;;;;;;;;;;;;;;28.31;30.67;100894.09;5063993;28;1203;-39
2022/07/12 01:37:44;;;;;;;;;;;;;;;28.30;30.70;100892.41;5065727;28;1882;-39
2022/07/12 01:40:10;;;;;;;;;;;;;;;28.27;30.58;100890.09;5067526;28;977;-39
2022/07/12 01:42:35;;;;;;;;;;;;;;;28.27;30.48;100889.25;5061146;28;1001;-39
2022/07/12 01:45:01;;;;;;;;;;;;;;;28.27;30.18;100889.25;5065511;28;992;-39
2022/07/12 01:47:27;;;;;;;;;;;;;;;28.35;30.36;100900.00;5066847;28;1147;-39
2022/07/12 01:49:52;;;;;;;;;;;;;;;28.31;30.24;100896.78;5075994;28;1017;-39
2022/07/12 01:52:17;;;;;;;;;;;;;;;28.29;30.63;100898.88;5062245;28;1209;-39
2022/07/12 01:54:43;;;;;;;;;;;;;;;28.33;30.46;100902.03;5073476;28;985;-39
2022/07/12 01:57:08;;;;;;;;;;;;;;;28.31;30.51;100901.38;5065119;28;1975;-39
2022/07/12 01:59:34;;;;;;;;;;;;;;;28.25;30.54;100905.66;5061669;28;1115;-39
2022/07/12 02:01:59;;;;;;;;;;;;;;;28.28;30.74;100894.47;5069044;28;1213;-39
2022/07/12 02:04:24;;;;;;;;;;;;;;;28.30;30.89;100896.97;5069873;28;1052;-39
2022/07/12 02:06:50;;;;;;;;;;;;;;;28.41;30.76;100893.81;5064240;28;1515;-39
2022/07/12 02:09:15;;;;;;;;;;;;;;;28.38;30.79;100902.31;5065335;28;1044;-39
2022/07/12 02:11:40;;;;;;;;;;;;;;;28.34;30.98;100906.44;5064385;28;1170;-39
2022/07/12 02:14:06;;;;;;;;;;;;;;;28.33;30.76;100896.63;5066085;28;960;-39
2022/07/12 02:16:31;;;;;;;;;;;;;;;28.40;30.73;100902.97;5066452;28;1025;-39
2022/07/12 02:18:57;;;;;;;;;;;;;;;28.49;30.70;100903.72;5062488;28;1906;-39
2022/07/12 02:21:22;;;;;;;;;;;;;;;28.43;30.87;100908.00;5063425;28;1051;-39
2022/07/12 02:23:47;;;;;;;;;;;;;;;28.52;30.21;100905.19;5067700;28;887;-39
2022/07/12 02:26:13;;;;;;;;;;;;;;;28.48;30.70;100899.31;5065530;28;1051;-39
2022/07/12 02:28:38;;;;;;;;;;;;;;;28.43;30.32;100896.34;5071117;28;1182;-38
2022/07/12 02:31:03;;;;;;;;;;;;;;;28.46;30.21;100906.81;5067058;28;1040;-39
2022/07/12 02:33:29;;;;;;;;;;;;;;;28.32;30.61;100909.31;5063907;28;1254;-37
2022/07/12 02:35:54;;;;;;;;;;;;;;;27.95;32.83;100908.34;5069699;28;1166;-38
2022/07/12 02:38:21;;;;;;;;;;;;;;;27.95;32.96;100908.34;5065073;28;1889;-39
2022/07/12 02:40:55;;;;;;;;;;;;;;;27.94;33.01;100909.38;5071430;28;1108;-38
2022/07/12 02:43:24;;;;;;;;;;;;;;;27.80;32.86;100908.31;5060333;28;988;-38
2022/07/12 02:45:49;;;;;;;;;;;;;;;27.79;32.97;100903.97;5065677;28;1079;-39
2022/07/12 02:48:15;;;;;;;;;;;;;;;27.79;33.28;100910.22;5059474;28;874;-39
2022/07/12 02:50:40;;;;;;;;;;;;;;;27.82;33.90;100912.53;5064933;28;1004;-39
2022/07/12 02:53:08;;;;;;;;;;;;;;;27.83;33.64;100908.81;5067566;28;1167;-39
2022/07/12 02:55:34;;;;;;;;;;;;;;;27.77;33.48;100906.00;5064225;28;1009;-39
2022/07/12 02:58:00;;;;;;;;;;;;;;;27.67;33.58;100914.34;5060383;28;1886;-39
2022/07/12 03:00:25;;;;;;;;;;;;;;;27.73;33.61;100914.47;5069426;28;1252;-38
2022/07/12 03:02:50;;;;;;;;;;;;;;;27.77;34.00;100917.66;5061862;28;1131;-39
2022/07/12 03:05:16;;;;;;;;;;;;;;;27.77;34.08;100917.66;5069050;28;1007;-39
2022/07/12 03:07:41;;;;;;;;;;;;;;;27.63;34.05;100919.25;5070087;28;1178;-37
2022/07/12 03:10:07;;;;;;;;;;;;;;;27.59;33.87;100918.78;5063918;28;1226;-39
2022/07/12 03:12:32;;;;;;;;;;;;;;;27.62;34.00;100925.69;5063221;28;867;-38
2022/07/12 03:14:57;;;;;;;;;;;;;;;27.77;33.42;100919.50;5059062;28;1082;-37
2022/07/12 03:17:23;;;;;;;;;;;;;;;27.86;33.91;100919.25;5065608;28;1898;-38
2022/07/12 03:19:48;;;;;;;;;;;;;;;27.70;33.59;100922.97;5066696;28;1032;-39
2022/07/12 03:22:13;;;;;;;;;;;;;;;27.48;33.50;100927.31;5061615;28;1005;-37
2022/07/12 03:24:38;;;;;;;;;;;;;;;27.57;34.14;100928.94;5073524;28;1444;-39
2022/07/12 03:27:04;;;;;;;;;;;;;;;27.48;33.98;100935.44;5061320;28;1226;-39
2022/07/12 03:29:29;;;;;;;;;;;;;;;27.51;33.83;100937.75;5065286;28;1012;-39
2022/07/12 03:31:54;;;;;;;;;;;;;;;27.43;34.28;100933.28;5069889;28;1108;-39
2022/07/12 03:34:20;;;;;;;;;;;;;;;27.18;34.08;100928.03;5058929;28;1171;-39
2022/07/12 03:36:45;;;;;;;;;;;;;;;27.13;33.85;100939.38;5066662;28;1298;-38
2022/07/12 03:39:11;;;;;;;;;;;;;;;27.15;34.23;100936.50;5066321;28;1975;-38
2022/07/12 03:41:36;;;;;;;;;;;;;;;27.28;34.31;100935.91;5069959;28;1144;-38
2022/07/12 03:44:01;;;;;;;;;;;;;;;27.09;34.02;100939.94;5058206;28;973;-38
2022/07/12 03:46:26;;;;;;;;;;;;;;;27.21;34.15;100943.06;5058805;28;1049;-37
2022/07/12 03:48:52;;;;;;;;;;;;;;;27.28;33.76;100938.63;5057192;28;1127;-38
2022/07/12 03:51:17;;;;;;;;;;;;;;;26.83;33.35;100941.88;5067025;28;1511;-38
2022/07/12 03:53:42;;;;;;;;;;;;;;;26.56;33.37;100944.03;5059904;28;1285;-37
2022/07/12 03:56:07;;;;;;;;;;;;;;;25.82;32.25;100943.16;5059075;28;1163;-38
2022/07/12 03:58:33;;;;;;;;;;;;;;;26.19;31.54;100945.47;5066968;28;2428;-38
2022/07/12 04:00:58;;;;;;;;;;;;;;;26.58;31.22;100938.44;5063961;28;1835;-37
2022/07/12 04:03:23;;;;;;;;;;;;;;;26.68;30.95;100933.69;5057321;28;2200;-38
2022/07/12 04:05:49;;;;;;;;;;;;;;;26.58;30.85;100944.69;5060183;28;2385;-38
2022/07/12 04:08:15;;;;;;;;;;;;;;;26.71;30.10;100940.63;5063741;28;1844;-38
2022/07/12 04:10:40;;;;;;;;;;;;;;;26.62;30.00;100940.66;5064520;28;2005;-39
2022/07/12 04:13:05;;;;;;;;;;;;;;;26.38;30.47;100938.84;5059336;28;1852;-40
2022/07/12 04:15:31;;;;;;;;;;;;;;;26.15;30.60;100942.25;5062523;28;1024;-40
2022/07/12 04:17:56;;;;;;;;;;;;;;;26.01;30.58;100941.09;5070597;28;1963;-38
2022/07/12 04:20:21;;;;;;;;;;;;;;;25.90;31.58;100947.69;5064507;28;1665;-40
2022/07/12 04:22:46;;;;;;;;;;;;;;;25.92;30.66;100941.09;5056653;28;1589;-39
2022/07/12 04:25:12;;;;;;;;;;;;;;;25.75;31.90;100950.22;5067902;28;898;-39
2022/07/12 04:27:37;;;;;;;;;;;;;;;25.87;32.26;100948.88;5060535;28;1190;-40
2022/07/12 04:30:03;;;;;;;;;;;;;;;25.87;32.20;100950.72;5061738;28;1044;-40
2022/07/12 04:32:28;;;;;;;;;;;;;;;25.95;30.94;100953.41;5069461;28;1036;-39
2022/07/12 04:34:53;;;;;;;;;;;;;;;26.04;30.61;100948.88;5072703;28;1011;-40
2022/07/12 04:37:18;;;;;;;;;;;;;;;26.06;30.65;100951.41;5060079;28;1906;-40
2022/07/12 04:39:44;;;;;;;;;;;;;;;26.12;30.77;100958.78;5074062;28;1087;-40
2022/07/12 04:42:09;;;;;;;;;;;;;;;26.60;31.99;100956.16;5073454;28;1130;-39
2022/07/12 04:44:35;;;;;;;;;;;;;;;26.85;32.29;100947.09;5058295;28;2679;-39
2022/07/12 04:47:00;;;;;;;;;;;;;;;26.85;32.25;100953.34;5069913;28;976;-37
2022/07/12 04:49:25;;;;;;;;;;;;;;;26.86;32.07;100946.09;5059107;28;1163;-39
2022/07/12 04:51:50;;;;;;;;;;;;;;;26.78;32.23;100949.66;5071112;28;995;-38
2022/07/12 04:54:16;;;;;;;;;;;;;;;26.69;32.00;100954.28;5059306;28;1254;-39
2022/07/12 04:56:41;;;;;;;;;;;;;;;26.55;30.86;100950.44;5068790;28;1556;-38
2022/07/12 04:59:06;;;;;;;;;;;;;;;26.03;31.96;100956.09;5061606;28;1957;-37
2022/07/12 05:01:32;;;;;;;;;;;;;;;25.94;30.75;100953.59;5059429;28;1056;-37
2022/07/12 05:03:57;;;;;;;;;;;;;;;25.94;30.73;100950.91;5068567;28;1008;-38
2022/07/12 05:06:23;;;;;;;;;;;;;;;26.17;29.22;100954.56;5063494;28;1043;-36
2022/07/12 05:08:48;;;;;;;;;;;;;;;20.65;41.75;100946.59;5064087;28;989;-37
2022/07/12 05:11:13;;;;;;;;;;;;;;;17.40;52.37;100947.38;5071410;28;988;-37
2022/07/12 05:13:39;;;;;;;;;;;;;;;18.05;55.20;100949.69;5064796;28;2329;-38
2022/07/12 05:16:05;;;;;;;;;;;;;;;18.17;55.56;100945.22;5074899;28;1122;-38
2022/07/12 05:18:31;;;;;;;;;;;;;;;17.94;57.47;100950.47;5074293;28;1910;-38
2022/07/12 05:20:56;;;;;;;;;;;;;;;17.62;59.11;100947.47;5077406;28;1079;-38
2022/07/12 05:23:21;;;;;;;;;;;;;;;17.46;60.08;100952.22;5076271;28;1171;-37
2022/07/12 05:25:47;;;;;;;;;;;;;;;17.53;60.26;100960.59;5071244;28;876;-37
2022/07/12 05:28:13;;;;;;;;;;;;;;;18.31;57.89;100944.19;5069063;28;996;-37
2022/07/12 05:30:39;;;;;;;;;;;;;;;18.35;58.13;100949.16;5069359;28;1051;-37
2022/07/12 05:33:04;;;;;;;;;;;;;;;18.37;58.60;100949.03;5065468;28;1012;-37
2022/07/12 05:35:29;;;;;;;;;;;;;;;19.30;57.51;100954.19;5069049;28;1108;-39
2022/07/12 05:37:55;;;;;;;;;;;;;;;22.27;47.73;100955.34;5069442;28;1957;-40
2022/07/12 05:40:20;;;;;;;;;;;;;;;21.56;45.80;100954.69;5073115;28;1213;-40
2022/07/12 05:42:45;;;;;;;;;;;;;;;18.35;57.09;100946.47;5066902;28;1005;-40
2022/07/12 05:45:10;;;;;;;;;;;;;;;17.64;58.96;100955.34;5061373;28;2803;-41
2022/07/12 05:47:36;;;;;;;;;;;;;;;20.04;55.04;100954.44;5065164;28;1001;-41
2022/07/12 05:50:01;;;;;;;;;;;;;;;22.59;47.73;100955.97;5069041;28;902;-39
2022/07/12 05:55:10;;;;;;;;;;;;;;;18.68;58.08;100953.78;5064905;28;1066;-40
2022/07/12 05:57:35;;;;;;;;;;;;;;;18.38;59.38;100945.41;5070465;28;1898;-39
2022/07/12 06:00:01;;;;;;;;;;;;;;;18.21;60.65;100946.72;5074389;28;1043;-39
2022/07/12 06:02:26;;;;;;;;;;;;;;;18.30;60.70;100951.31;5069893;28;1275;-40
2022/07/12 06:04:51;;;;;;;;;;;;;;;18.37;62.30;100942.88;5066562;28;1036;-40
2022/07/12 06:07:17;;;;;;;;;;;;;;;21.42;51.37;100947.91;5064882;28;1114;-40
2022/07/12 06:09:42;;;;;;;;;;;;;;;22.52;49.99;100952.19;5071225;28;980;-41
2022/07/12 06:12:07;;;;;;;;;;;;;;;19.42;55.23;100949.69;5071049;28;1060;-41
2022/07/12 06:14:33;;;;;;;;;;;;;;;18.02;59.70;100950.75;5059120;28;2349;-41
2022/07/12 06:16:58;;;;;;;;;;;;;;;17.74;61.33;100955.50;5073565;28;953;-40
2022/07/12 06:19:23;;;;;;;;;;;;;;;17.87;61.87;100955.41;5069654;28;1975;-39
2022/07/12 06:21:49;;;;;;;;;;;;;;;19.01;62.35;100952.06;5073565;28;1051;-40
2022/07/12 06:24:14;;;;;;;;;;;;;;;21.84;51.73;100959.38;5073674;28;1055;-39
2022/07/12 06:26:40;;;;;;;;;;;;;;;18.91;58.75;100951.94;5074271;28;1074;-40
2022/07/12 06:29:05;;;;;;;;;;;;;;;18.30;60.94;100953.16;5076391;28;1067;-40
2022/07/12 06:31:30;;;;;;;;;;;;;;;18.23;62.69;100950.94;5062456;28;1307;-40
2022/07/12 06:33:56;;;;;;;;;;;;;;;21.06;53.84;100951.13;5068791;28;1072;-41
2022/07/12 06:36:21;;;;;;;;;;;;;;;19.53;56.62;100951.50;5073987;28;1075;-42
2022/07/12 06:38:46;;;;;;;;;;;;;;;18.50;60.19;100950.75;5062586;28;1981;-41
2022/07/12 06:41:12;;;;;;;;;;;;;;;20.73;55.45;100951.28;5076439;28;1000;-40
2022/07/12 06:43:37;;;;;;;;;;;;;;;20.14;54.66;100951.81;5061072;28;2564;-41
2022/07/12 06:46:02;;;;;;;;;;;;;;;18.80;59.21;100943.97;5060706;28;1068;-41
2022/07/12 06:48:28;;;;;;;;;;;;;;;18.29;61.35;100949.63;5069990;28;1031;-41
2022/07/12 06:50:53;;;;;;;;;;;;;;;21.01;54.73;100948.00;5068377;28;1007;-40
2022/07/12 06:53:20;;;;;;;;;;;;;;;19.81;55.94;100949.19;5068053;28;1146;-41
2022/07/12 06:55:45;;;;;;;;;;;;;;;18.78;59.56;100937.91;5069236;28;1139;-41
2022/07/12 06:58:10;;;;;;;;;;;;;;;18.31;61.52;100929.06;5074256;28;1894;-40
2022/07/12 07:00:36;;;;;;;;;;;;;;;18.19;62.24;100937.97;5073485;28;1193;-40
2022/07/12 07:03:04;;;;;;;;;;;;;;;18.13;62.66;100938.47;5064359;28;1067;-40
2022/07/12 07:05:29;;;;;;;;;;;;;;;18.06;62.81;100930.94;5075531;28;1209;-41
2022/07/12 07:07:55;;;;;;;;;;;;;;;20.45;57.50;100929.63;5064076;28;944;-41
2022/07/12 07:10:20;;;;;;;;;;;;;;;20.60;52.33;100931.94;5070888;28;957;-41
2022/07/12 07:12:45;;;;;;;;;;;;;;;18.62;60.18;100927.63;5068463;28;1036;-41
2022/07/12 07:15:13;;;;;;;;;;;;;;;18.23;62.08;100924.31;5063326;28;981;-40
2022/07/12 07:17:39;;;;;;;;;;;;;;;18.07;62.31;100916.63;5069655;28;1977;-41
2022/07/12 07:20:04;;;;;;;;;;;;;;;19.62;60.32;100925.84;5072760;28;984;-42
2022/07/12 07:22:30;;;;;;;;;;;;;;;21.72;49.10;100922.00;5073503;28;1011;-43
2022/07/12 07:24:55;;;;;;;;;;;;;;;18.96;58.98;100920.44;5070029;28;1445;-41
2022/07/12 07:27:20;;;;;;;;;;;;;;;18.31;61.82;100914.88;5067196;28;1012;-42
2022/07/12 07:32:29;;;;;;;;;;;;;;;21.94;53.05;100925.38;5061949;28;1005;-42
2022/07/12 07:34:54;;;;;;;;;;;;;;;19.14;58.63;100919.94;5073319;28;1066;-40
2022/07/12 07:37:20;;;;;;;;;;;;;;;18.29;61.78;100917.69;5073926;28;1964;-41
2022/07/12 07:39:45;;;;;;;;;;;;;;;20.63;56.91;100924.50;5069199;28;1080;-41
2022/07/12 07:42:10;;;;;;;;;;;;;;;20.31;54.74;100928.16;5057718;28;907;-41
2022/07/12 07:44:36;;;;;;;;;;;;;;;18.80;59.93;100925.31;5068769;28;948;-41
2022/07/12 07:47:01;;;;;;;;;;;;;;;18.56;62.59;100923.63;5068185;28;1078;-41
2022/07/12 07:49:26;;;;;;;;;;;;;;;21.25;54.00;100928.88;5066123;28;1112;-41
2022/07/12 07:51:51;;;;;;;;;;;;;;;19.89;55.82;100932.50;5066160;28;1024;-41
2022/07/12 07:54:17;;;;;;;;;;;;;;;18.70;59.78;100926.03;5069691;28;1000;-41
2022/07/12 07:56:42;;;;;;;;;;;;;;;18.32;62.08;100921.91;5073308;28;1098;-41
2022/07/12 07:59:07;;;;;;;;;;;;;;;18.24;62.43;100933.16;5072223;28;1953;-41
2022/07/12 08:01:42;;;;;;;;;;;;;;;20.48;57.21;100932.03;5068708;28;1227;-42
2022/07/12 08:04:11;;;;;;;;;;;;;;;20.18;55.22;100934.56;5072359;28;1238;-40
2022/07/12 08:06:36;;;;;;;;;;;;;;;18.76;60.32;100937.19;5066100;28;953;-40
2022/07/12 08:09:01;;;;;;;;;;;;;;;18.80;63.79;100934.13;5064110;28;1028;-42
2022/07/12 08:11:27;;;;;;;;;;;;;;;21.47;53.32;100929.63;5058542;28;996;-40
2022/07/12 08:13:52;;;;;;;;;;;;;;;19.81;56.25;100927.81;5063135;28;992;-38
2022/07/12 08:16:17;;;;;;;;;;;;;;;18.94;59.66;100921.53;5067372;28;1215;-38
2022/07/12 08:18:43;;;;;;;;;;;;;;;18.43;61.59;100923.75;5064520;28;1894;-40
2022/07/12 08:21:08;;;;;;;;;;;;;;;18.80;63.01;100925.31;5059531;28;1155;-40
2022/07/12 08:23:33;;;;;;;;;;;;;;;21.54;52.76;100919.19;5073627;28;1071;-40
2022/07/12 08:25:58;;;;;;;;;;;;;;;19.47;57.57;100922.63;5067051;28;1146;-40
2022/07/12 08:28:24;;;;;;;;;;;;;;;18.58;60.72;100921.69;5068971;28;1067;-41
2022/07/12 08:30:49;;;;;;;;;;;;;;;18.25;62.13;100921.53;5063147;28;988;-40
2022/07/12 08:33:14;;;;;;;;;;;;;;;18.07;62.90;100905.13;5060468;28;1031;-40
2022/07/12 08:35:40;;;;;;;;;;;;;;;18.18;62.70;100915.84;5073584;28;984;-40
2022/07/12 08:38:05;;;;;;;;;;;;;;;19.71;60.34;100916.22;5067157;28;1899;-40
2022/07/12 08:40:30;;;;;;;;;;;;;;;21.64;50.15;100903.97;5069184;28;1155;-40
2022/07/12 08:43:00;;;;;;;;;;;;;;;18.85;58.25;100920.47;5062334;28;965;-40
2022/07/12 08:45:25;;;;;;;;;;;;;;;18.32;58.17;100922.75;5070840;28;980;-40
2022/07/12 08:47:50;;;;;;;;;;;;;;;18.16;57.69;100920.44;5072707;28;1015;-39
2022/07/12 08:50:17;;;;;;;;;;;;;;;18.07;56.95;100921.09;5066036;28;980;-41
2022/07/12 08:52:52;;;;;;;;;;;;;;;18.97;55.58;100910.59;5073398;28;976;-39
2022/07/12 08:55:38;;;;;;;;;;;;;;;21.97;46.04;100913.56;5064439;28;1039;-39
2022/07/12 08:58:05;;;;;;;;;;;;;;;18.33;55.04;100899.66;5070865;28;1969;-41
2022/07/12 09:00:30;;;;;;;;;;;;;;;17.58;58.00;100913.22;5076092;28;1248;-38
2022/07/12 09:02:56;;;;;;;;;;;;;;;20.61;51.42;100914.91;5070518;28;1224;-41
2022/07/12 09:05:22;;;;;;;;;;;;;;;19.57;52.96;100904.88;5079149;28;1086;-40
2022/07/12 09:07:48;;;;;;;;;;;;;;;18.50;57.39;100900.97;5067037;28;1211;-40
2022/07/12 09:10:13;;;;;;;;;;;;;;;19.28;57.82;100907.31;5067114;28;809;-39
2022/07/12 09:12:40;;;;;;;;;;;;;;;21.90;48.54;100902.59;5068219;28;1024;-39
2022/07/12 09:15:21;;;;;;;;;;;;;;;19.22;55.30;100897.97;5069003;28;861;-41
2022/07/12 09:17:47;;;;;;;;;;;;;;;19.12;59.18;100889.88;5069077;28;1910;-41
2022/07/12 09:20:13;;;;;;;;;;;;;;;21.85;49.75;100897.66;5076663;28;1019;-40
2022/07/12 09:22:51;;;;;;;;;;;;;;;19.23;54.69;100891.69;5069336;28;1376;-40
2022/07/12 09:25:17;;;;;;;;;;;;;;;17.85;59.19;100888.16;5066438;28;1048;-40
2022/07/12 09:28:00;;;;;;;;;;;;;;;19.78;57.27;100896.06;5071817;28;976;-40
2022/07/12 09:30:30;;;;;;;;;;;;;;;20.42;51.99;100904.00;5071388;28;1654;-41
2022/07/12 09:36:12;;;;;;;;;;;;;;;18.40;58.57;100890.19;5065588;28;1049;-39
2022/07/12 09:38:52;;;;;;;;;;;;;;;20.24;55.05;100890.44;5074058;28;1941;-39
2022/07/12 09:41:18;;;;;;;;;;;;;;;20.49;50.63;100895.47;5063466;28;857;-40
2022/07/12 09:43:48;;;;;;;;;;;;;;;19.04;56.36;100889.63;5068133;28;944;-40
2022/07/12 09:46:13;;;;;;;;;;;;;;;18.76;59.10;100886.53;5068946;28;1192;-39
2022/07/12 09:48:39;;;;;;;;;;;;;;;21.67;49.41;100883.28;5071308;28;968;-38
2022/07/12 09:51:12;;;;;;;;;;;;;;;19.98;53.89;100885.50;5067150;28;1060;-38
2022/07/12 09:53:44;;;;;;;;;;;;;;;18.77;58.06;100883.75;5070033;28;1087;-41
2022/07/12 09:56:11;;;;;;;;;;;;;;;18.51;59.56;100877.84;5074820;28;1078;-40
2022/07/12 09:58:43;;;;;;;;;;;;;;;18.47;60.44;100879.91;5074609;28;1898;-39
2022/07/12 10:01:34;;;;;;;;;;;;;;;20.49;55.59;100876.75;5063127;28;1637;-39
2022/07/12 10:04:00;;;;;;;;;;;;;;;20.28;54.05;100881.19;5073633;28;1423;-38
2022/07/12 10:06:31;;;;;;;;;;;;;;;18.87;59.45;100875.84;5067861;28;988;-41
2022/07/12 10:09:01;;;;;;;;;;;;;;;18.54;61.22;100864.28;5061028;28;1005;-41
2022/07/12 10:11:49;;;;;;;;;;;;;;;21.49;53.19;100870.59;5069956;28;1072;-40
2022/07/12 10:14:22;;;;;;;;;;;;;;;19.81;55.19;100868.25;5068795;28;1175;-39
2022/07/12 10:17:09;;;;;;;;;;;;;;;21.12;55.10;100864.97;5058227;28;1053;-41
2022/07/12 10:19:35;;;;;;;;;;;;;;;23.29;47.95;100867.06;5070348;28;1969;-40
2022/07/12 10:22:03;;;;;;;;;;;;;;;24.28;44.01;100866.06;5055862;28;1187;-40
2022/07/12 10:24:48;;;;;;;;;;;;;;;24.87;42.48;100859.91;5068636;28;1228;-39
2022/07/12 10:27:17;;;;;;;;;;;;;;;25.39;38.98;100867.91;5063010;28;936;-41
2022/07/12 10:29:53;;;;;;;;;;;;;;;25.51;37.94;100873.75;5067739;28;1036;-39
2022/07/12 10:32:26;;;;;;;;;;;;;;;25.24;37.04;100871.22;5071683;28;1048;-39
2022/07/12 10:34:58;;;;;;;;;;;;;;;25.77;33.53;100853.91;5073769;28;1644;-39
2022/07/12 10:37:24;;;;;;;;;;;;;;;24.06;36.80;100865.59;5075082;28;1961;-39
2022/07/12 10:40:27;;;;;;;;;;;;;;;22.59;43.81;100851.38;5073486;28;1275;-41
2022/07/12 10:43:05;;;;;;;;;;;;;;;24.70;38.17;100853.63;4973860;28;1251;-37
2022/07/12 10:45:32;;;;;;;;;;;;;;;23.42;43.21;100848.72;5048515;28;1105;-38
2022/07/12 10:47:58;;;;;;;;;;;;;;;25.02;38.91;100852.06;5067845;28;1133;-39
2022/07/12 10:50:57;;;;;;;;;;;;;;;22.49;47.34;100842.56;5073644;28;1214;-38
2022/07/12 10:53:29;;;;;;;;;;;;;;;24.93;40.05;100845.81;5064711;28;1017;-39
2022/07/12 10:56:03;;;;;;;;;;;;;;;24.62;39.40;100849.09;5068699;28;1156;-40
2022/07/12 10:58:39;;;;;;;;;;;;;;;24.13;42.41;100844.31;5074556;28;2038;-40
2022/07/12 11:01:05;;;;;;;;;;;;;;;23.94;41.01;100828.25;5071758;28;1295;-41
2022/07/12 11:03:31;;;;;;;;;;;;;;;23.95;43.87;100839.84;5057923;28;1108;-41
2022/07/12 11:06:03;;;;;;;;;;;;;;;24.57;40.61;100836.09;5069027;28;972;-41
2022/07/12 11:08:29;;;;;;;;;;;;;;;23.92;44.10;100832.94;5069650;28;1019;-42
2022/07/12 11:10:58;;;;;;;;;;;;;;;23.66;42.35;100833.78;5059602;28;1246;-41
2022/07/12 11:13:24;;;;;;;;;;;;;;;23.97;44.19;100824.44;5070279;28;1254;-40
2022/07/12 11:16:01;;;;;;;;;;;;;;;25.23;41.06;100834.56;5066155;28;890;-42
2022/07/12 11:18:29;;;;;;;;;;;;;;;22.89;48.26;100835.13;5066940;28;1906;-40
2022/07/12 11:20:58;;;;;;;;;;;;;;;25.09;41.10;100835.22;5071027;28;956;-40
2022/07/12 11:23:26;;;;;;;;;;;;;;;25.44;38.76;100838.59;5069249;28;1039;-40
2022/07/12 11:25:55;;;;;;;;;;;;;;;23.94;45.19;100832.81;5074769;28;957;-40
2022/07/12 11:28:20;;;;;;;;;;;;;;;25.39;40.22;100841.78;5062765;28;1122;-39
2022/07/12 11:30:49;;;;;;;;;;;;;;;23.56;43.00;100835.72;5060081;28;1111;-40
2022/07/12 11:33:14;;;;;;;;;;;;;;;24.21;43.49;100836.31;5068187;28;1017;-38
2022/07/12 11:35:40;;;;;;;;;;;;;;;25.49;41.92;100846.16;5073227;28;1078;-40
2022/07/12 11:38:05;;;;;;;;;;;;;;;22.68;48.50;100835.44;5073058;28;1972;-39
2022/07/12 11:40:30;;;;;;;;;;;;;;;24.56;42.42;100838.94;5062831;28;1421;-40
2022/07/12 11:42:58;;;;;;;;;;;;;;;25.58;41.35;100844.28;5076178;28;1106;-41
2022/07/12 11:45:24;;;;;;;;;;;;;;;22.92;49.70;100834.00;5068615;28;1004;-39
2022/07/12 11:47:49;;;;;;;;;;;;;;;25.18;41.25;100851.22;5061429;28;1289;-39
2022/07/12 11:50:17;;;;;;;;;;;;;;;25.86;39.38;100850.16;5070411;28;1084;-40
2022/07/12 11:52:42;;;;;;;;;;;;;;;23.04;48.97;100851.56;5059921;28;855;-41
2022/07/12 11:55:07;;;;;;;;;;;;;;;25.07;40.62;100851.56;5062144;28;1063;-40
2022/07/12 11:57:33;;;;;;;;;;;;;;;25.56;39.63;100850.69;5068271;28;1934;-42
2022/07/12 12:00:12;;;;;;;;;;;;;;;22.97;48.82;100845.94;5065138;28;1053;-42
2022/07/12 12:02:37;;;;;;;;;;;;;;;25.21;40.65;100843.81;5072844;28;1072;-41
2022/07/12 12:05:03;;;;;;;;;;;;;;;25.83;39.20;100845.13;5066438;28;875;-40
2022/07/12 12:07:28;;;;;;;;;;;;;;;23.78;46.11;100839.75;5058114;28;1476;-43
2022/07/12 12:10:00;;;;;;;;;;;;;;;25.38;39.62;100844.66;5065719;28;1008;-42
2022/07/12 12:12:26;;;;;;;;;;;;;;;24.56;40.32;100839.81;5061825;28;976;-43
2022/07/12 12:14:51;;;;;;;;;;;;;;;24.24;43.87;100838.66;5067079;28;1007;-44
2022/07/12 12:17:17;;;;;;;;;;;;;;;25.78;40.19;100837.56;5064136;28;977;-42
2022/07/12 12:19:42;;;;;;;;;;;;;;;23.27;44.57;100836.84;5069877;28;2044;-41
2022/07/12 12:22:28;;;;;;;;;;;;;;;24.19;43.11;100832.97;5072960;28;1066;-41
2022/07/12 12:25:00;;;;;;;;;;;;;;;25.76;39.33;100834.19;5060068;28;1994;-40
2022/07/12 12:27:25;;;;;;;;;;;;;;;22.71;47.97;100833.28;5069980;28;1051;-41
2022/07/12 12:29:51;;;;;;;;;;;;;;;24.93;40.74;100834.19;5069887;28;1232;-40
2022/07/12 12:32:19;;;;;;;;;;;;;;;25.76;39.85;100831.50;5070096;28;1071;-41
2022/07/12 12:35:03;;;;;;;;;;;;;;;22.63;50.12;100820.66;5072962;28;1024;-41
2022/07/12 12:37:29;;;;;;;;;;;;;;;25.04;40.66;100823.09;5061797;28;1902;-43
2022/07/12 12:39:54;;;;;;;;;;;;;;;25.20;38.89;100824.13;5066570;28;1067;-45
2022/07/12 12:42:25;;;;;;;;;;;;;;;23.30;47.27;100823.09;5074697;28;1206;-47
2022/07/12 12:44:51;;;;;;;;;;;;;;;25.32;40.11;100827.34;5067355;28;965;-44
2022/07/12 12:47:31;;;;;;;;;;;;;;;23.65;42.74;100824.06;5069261;28;1442;-42
2022/07/12 12:49:57;;;;;;;;;;;;;;;24.13;43.43;100826.34;5063209;28;1005;-45
2022/07/12 12:52:23;;;;;;;;;;;;;;;25.54;40.12;100820.41;5063459;28;1198;-42
2022/07/12 12:54:48;;;;;;;;;;;;;;;22.47;49.07;100823.94;5075208;28;1031;-44